Time;durP1;ratioP1;P1;durP2;ratioP2;P2;SDS_P1;SDS_P2;PMS_P1;PMS_P2;Temp;Humidity;BMP_temperature;BMP_pressure;BME280_temperature;BME280_humidity;BME280_pressure;Samples;Min_cycle;Max_cycle;Signal;HPM_P1;HPM_P2
2023/10/21 00:01:06;;;;;;;20.55;14.40;;;;;;;;;;5050926;28;20047;-92
2023/10/21 00:03:32;;;;;;;21.50;14.90;;;;;;;;;;5067677;28;20093;-93
2023/10/21 00:05:58;;;;;;;28.60;15.25;;;;;;;;;;5065168;28;20077;-90
2023/10/21 00:08:24;;;;;;;30.77;14.65;;;;;;;;;;5051251;28;20084;-91
2023/10/21 00:11:01;;;;;;;26.33;14.60;;;;;;;;;;5049298;28;20709;-87
2023/10/21 00:13:27;;;;;;;29.05;14.20;;;;;;;;;;5065383;28;20039;-91
2023/10/21 00:15:53;;;;;;;23.05;12.80;;;;;;;;;;5067376;28;20087;-85
2023/10/21 00:18:19;;;;;;;28.52;14.90;;;;;;;;;;5066174;28;20048;-87
2023/10/21 00:20:45;;;;;;;23.48;13.63;;;;;;;;;;5066965;28;20049;-86
2023/10/21 00:23:11;;;;;;;20.75;14.02;;;;;;;;;;5061220;28;20039;-83
2023/10/21 00:25:37;;;;;;;25.88;13.73;;;;;;;;;;5066997;28;20499;-86
2023/10/21 00:28:03;;;;;;;25.13;14.52;;;;;;;;;;5060118;28;20500;-83
2023/10/21 00:30:29;;;;;;;28.92;13.45;;;;;;;;;;5045119;28;20047;-83
2023/10/21 00:32:55;;;;;;;25.30;15.30;;;;;;;;;;5066008;28;20040;-85
2023/10/21 00:35:22;;;;;;;25.70;14.80;;;;;;;;;;5066862;28;20054;-83
2023/10/21 00:37:48;;;;;;;25.65;14.02;;;;;;;;;;5065674;28;20055;-85
2023/10/21 00:40:14;;;;;;;24.88;13.95;;;;;;;;;;5049825;28;20407;-85
2023/10/21 00:42:40;;;;;;;26.05;14.45;;;;;;;;;;5066563;28;20049;-83
2023/10/21 00:45:07;;;;;;;31.05;13.90;;;;;;;;;;5048756;28;20066;-85
2023/10/21 00:47:33;;;;;;;27.25;15.43;;;;;;;;;;5076053;28;20043;-86
2023/10/21 00:50:01;;;;;;;21.63;12.60;;;;;;;;;;5066032;28;20054;-84
2023/10/21 00:52:27;;;;;;;26.42;14.40;;;;;;;;;;5079598;28;20050;-86
2023/10/21 00:54:54;;;;;;;24.55;13.60;;;;;;;;;;5066538;28;20143;-85
2023/10/21 00:57:21;;;;;;;27.00;13.57;;;;;;;;;;5077535;28;20039;-86
2023/10/21 00:59:47;;;;;;;21.75;12.77;;;;;;;;;;5046434;28;20058;-86
2023/10/21 01:02:13;;;;;;;22.55;13.38;;;;;;;;;;5063416;28;20108;-84
2023/10/21 01:04:40;;;;;;;27.33;12.48;;;;;;;;;;5083171;28;20455;-85
2023/10/21 01:07:06;;;;;;;22.58;12.35;;;;;;;;;;5049489;28;20055;-87
2023/10/21 01:09:32;;;;;;;22.73;12.60;;;;;;;;;;5049542;28;20051;-83
2023/10/21 01:11:58;;;;;;;30.88;13.75;;;;;;;;;;5064254;28;20040;-83
2023/10/21 01:14:24;;;;;;;18.45;11.75;;;;;;;;;;5047407;28;20119;-92
2023/10/21 01:16:50;;;;;;;20.25;11.30;;;;;;;;;;5083019;28;20062;-92
2023/10/21 01:19:16;;;;;;;19.45;11.75;;;;;;;;;;5067371;28;20048;-93
2023/10/21 01:21:42;;;;;;;22.80;11.45;;;;;;;;;;5067820;28;20180;-94
2023/10/21 01:24:08;;;;;;;17.48;10.30;;;;;;;;;;5062129;28;20391;-89
2023/10/21 01:26:35;;;;;;;15.68;9.63;;;;;;;;;;5101386;28;20036;-92
2023/10/21 01:29:01;;;;;;;15.65;10.23;;;;;;;;;;5103158;28;20079;-92
2023/10/21 01:31:29;;;;;;;17.45;10.32;;;;;;;;;;5070230;28;20040;-83
2023/10/21 01:33:55;;;;;;;18.55;10.60;;;;;;;;;;5070794;28;20048;-91
2023/10/21 01:36:21;;;;;;;21.05;11.15;;;;;;;;;;5070946;28;20123;-86
2023/10/21 01:38:47;;;;;;;16.08;10.18;;;;;;;;;;5053391;28;20048;-91
2023/10/21 01:41:13;;;;;;;15.82;10.20;;;;;;;;;;5069277;28;20032;-92
2023/10/21 01:43:40;;;;;;;14.98;9.18;;;;;;;;;;5054867;28;20050;-93
2023/10/21 01:46:06;;;;;;;18.38;10.25;;;;;;;;;;5056045;28;20126;-93
2023/10/21 01:48:32;;;;;;;18.00;10.25;;;;;;;;;;5068031;28;20043;-87
2023/10/21 01:51:00;;;;;;;14.30;10.15;;;;;;;;;;5069563;28;20044;-93
2023/10/21 01:53:26;;;;;;;18.92;9.93;;;;;;;;;;5070164;28;20066;-87
2023/10/21 01:55:59;;;;;;;20.75;9.85;;;;;;;;;;5086918;28;20147;-89
2023/10/21 01:58:25;;;;;;;19.90;10.18;;;;;;;;;;5068688;28;20040;-92
2023/10/21 02:00:52;;;;;;;16.88;10.20;;;;;;;;;;5087390;28;20040;-91
2023/10/21 02:03:18;;;;;;;15.98;8.45;;;;;;;;;;5070100;28;20100;-88
2023/10/21 02:05:44;;;;;;;18.33;10.55;;;;;;;;;;5070373;28;20044;-91
2023/10/21 02:08:10;;;;;;;18.95;9.70;;;;;;;;;;5047845;28;20518;-88
2023/10/21 02:10:39;;;;;;;15.27;9.25;;;;;;;;;;5086256;28;20035;-88
2023/10/21 02:13:05;;;;;;;17.50;11.15;;;;;;;;;;5082289;28;20043;-91
2023/10/21 02:15:36;;;;;;;14.55;10.43;;;;;;;;;;5059733;28;20067;-83
2023/10/21 02:18:02;;;;;;;17.63;10.73;;;;;;;;;;5062859;28;20047;-85
2023/10/21 02:20:28;;;;;;;18.55;11.50;;;;;;;;;;5039812;28;20399;-85
2023/10/21 02:22:54;;;;;;;19.58;11.35;;;;;;;;;;5051759;28;20823;-83
2023/10/21 02:25:20;;;;;;;20.15;11.02;;;;;;;;;;5050442;28;20048;-85
2023/10/21 02:27:47;;;;;;;20.73;11.52;;;;;;;;;;5083753;28;20043;-82
2023/10/21 02:30:16;;;;;;;20.95;12.63;;;;;;;;;;5052519;28;20131;-84
2023/10/21 02:32:46;;;;;;;21.20;11.10;;;;;;;;;;5085988;28;20047;-84
2023/10/21 02:35:12;;;;;;;19.15;11.82;;;;;;;;;;5051517;28;20039;-83
2023/10/21 02:37:38;;;;;;;21.13;12.00;;;;;;;;;;5065711;28;20062;-84
2023/10/21 02:40:05;;;;;;;17.77;11.95;;;;;;;;;;5052154;28;20052;-91
2023/10/21 02:42:31;;;;;;;20.92;12.88;;;;;;;;;;5085058;28;20567;-86
2023/10/21 02:44:57;;;;;;;19.35;12.20;;;;;;;;;;5069123;28;20044;-91
2023/10/21 02:47:23;;;;;;;23.95;12.93;;;;;;;;;;5068437;28;20044;-93
2023/10/21 02:49:49;;;;;;;23.83;13.73;;;;;;;;;;5068858;28;20043;-91
2023/10/21 02:52:15;;;;;;;24.98;12.00;;;;;;;;;;5052870;28;20042;-92
2023/10/21 02:54:41;;;;;;;23.90;13.27;;;;;;;;;;5071656;28;20120;-88
2023/10/21 02:57:07;;;;;;;20.00;13.43;;;;;;;;;;5068298;28;20093;-90
2023/10/21 02:59:35;;;;;;;23.10;13.25;;;;;;;;;;5077886;28;20044;-84
2023/10/21 03:02:01;;;;;;;20.45;12.82;;;;;;;;;;5052401;28;20042;-83
2023/10/21 03:04:27;;;;;;;21.92;13.40;;;;;;;;;;5051046;28;20092;-84
2023/10/21 03:06:53;;;;;;;26.77;13.68;;;;;;;;;;5051550;28;20122;-84
2023/10/21 03:09:19;;;;;;;26.50;13.88;;;;;;;;;;5046891;28;20051;-85
2023/10/21 03:11:45;;;;;;;19.90;13.57;;;;;;;;;;5067279;28;20042;-83
2023/10/21 03:14:11;;;;;;;29.25;14.43;;;;;;;;;;5080142;28;20126;-83
2023/10/21 03:16:37;;;;;;;23.85;13.52;;;;;;;;;;5066992;28;20100;-84
2023/10/21 03:19:04;;;;;;;21.80;13.38;;;;;;;;;;5067791;28;20043;-85
2023/10/21 03:21:30;;;;;;;24.17;13.65;;;;;;;;;;5067517;28;20062;-85
2023/10/21 03:23:56;;;;;;;23.02;12.95;;;;;;;;;;5083947;28;20073;-85
2023/10/21 03:26:22;;;;;;;22.55;13.02;;;;;;;;;;5051418;28;20096;-85
2023/10/21 03:28:50;;;;;;;22.88;13.00;;;;;;;;;;5061819;28;20138;-84
2023/10/21 03:31:16;;;;;;;28.17;12.90;;;;;;;;;;5051662;28;20047;-84
2023/10/21 03:33:42;;;;;;;26.13;13.15;;;;;;;;;;5067059;28;20043;-86
2023/10/21 03:36:08;;;;;;;22.38;12.23;;;;;;;;;;5084339;28;20090;-85
2023/10/21 03:38:34;;;;;;;26.90;13.43;;;;;;;;;;5082961;28;20051;-84
2023/10/21 03:41:03;;;;;;;21.40;12.50;;;;;;;;;;5064978;28;20459;-84
2023/10/21 03:43:29;;;;;;;25.27;13.68;;;;;;;;;;5062282;28;20222;-83
2023/10/21 03:45:55;;;;;;;26.17;13.02;;;;;;;;;;5049469;28;20060;-84
2023/10/21 03:48:24;;;;;;;20.85;13.68;;;;;;;;;;5058769;28;20086;-83
2023/10/21 03:50:50;;;;;;;24.27;13.90;;;;;;;;;;5082778;28;20039;-84
2023/10/21 03:53:17;;;;;;;28.17;13.98;;;;;;;;;;5066589;28;20075;-83
2023/10/21 03:55:44;;;;;;;27.23;13.63;;;;;;;;;;5083531;28;20051;-84
2023/10/21 03:58:10;;;;;;;23.92;13.15;;;;;;;;;;5065662;28;20566;-84
2023/10/21 04:00:40;;;;;;;22.95;13.45;;;;;;;;;;5050548;28;20488;-84
2023/10/21 04:03:07;;;;;;;23.38;13.07;;;;;;;;;;5066188;28;20089;-84
2023/10/21 04:05:33;;;;;;;23.27;14.43;;;;;;;;;;5067047;28;20044;-84
2023/10/21 04:07:59;;;;;;;26.08;14.50;;;10.20;99.90;;;;;;5083140;28;20047;-84
2023/10/21 04:10:26;;;;;;;22.98;13.18;;;;;;;;;;5066263;28;20040;-83
2023/10/21 04:12:52;;;;;;;23.75;13.93;;;;;;;;;;5066917;28;20071;-84
2023/10/21 04:15:18;;;;;;;20.67;12.93;;;;;;;;;;5083933;28;20039;-83
2023/10/21 04:17:45;;;;;;;22.30;13.27;;;;;;;;;;5066043;28;20049;-83
2023/10/21 04:20:12;;;;;;;35.92;14.70;;;;;;;;;;5049333;28;20097;-84
2023/10/21 04:22:39;;;;;;;25.45;14.60;;;;;;;;;;5066533;28;20047;-84
2023/10/21 04:25:06;;;;;;;23.40;13.50;;;;;;;;;;5082743;28;20081;-83
2023/10/21 04:27:33;;;;;;;23.77;14.50;;;;;;;;;;5066314;28;20048;-84
2023/10/21 04:29:59;;;;;;;21.23;14.52;;;;;;;;;;5046742;28;20083;-88
2023/10/21 04:32:25;;;;;;;21.98;13.95;;;;;;;;;;5083402;28;20031;-92
2023/10/21 04:34:51;;;;;;;22.25;14.25;;;;;;;;;;5082636;28;20902;-92
2023/10/21 04:37:17;;;;;;;21.70;14.50;;;;;;;;;;5063727;28;20499;-93
2023/10/21 04:39:43;;;;;;;20.50;13.52;;;;;;;;;;5051495;28;20058;-92
2023/10/21 04:42:10;;;;;;;22.27;14.10;;;;;;;;;;5068937;28;20198;-92
2023/10/21 04:44:37;;;;;;;24.35;14.82;;;;;;;;;;5076675;28;20074;-93
2023/10/21 04:47:03;;;;;;;21.42;13.55;;;;;;;;;;5065392;28;20044;-83
2023/10/21 04:49:29;;;;;;;22.10;14.65;;;;;;;;;;5065794;28;20043;-86
2023/10/21 04:51:55;;;;;;;25.42;13.95;;;;;;;;;;5049013;28;20119;-85
2023/10/21 04:54:21;;;;;;;19.75;13.23;;;;;;;;;;5050381;28;21790;-84
2023/10/21 04:56:47;;;;;;;20.67;13.27;;;;;;;;;;5048433;28;20069;-84
2023/10/21 04:59:13;;;;;;;26.75;14.55;;;;;;;;;;5064134;28;20039;-84
2023/10/21 05:01:39;;;;;;;30.35;14.77;;;;;;;;;;5065403;28;20032;-85
2023/10/21 05:04:05;;;;;;;18.92;13.50;;;;;;;;;;5075444;28;20135;-83
2023/10/21 05:06:31;;;;;;;25.75;13.82;;;;;;;;;;5063943;28;20043;-84
2023/10/21 05:08:57;;;;;;;24.17;14.07;;;;;;;;;;5064231;28;20043;-85
2023/10/21 05:11:23;;;;;;;22.75;13.27;;;;;;;;;;5049674;28;20039;-86
2023/10/21 05:13:49;;;;;;;26.35;14.00;;;;;;;;;;5065361;28;20036;-83
2023/10/21 05:16:15;;;;;;;24.10;13.25;;;;;;;;;;5083230;28;20070;-90
2023/10/21 05:18:42;;;;;;;22.58;12.77;;;;;;;;;;5097858;28;20050;-93
2023/10/21 05:21:08;;;;;;;23.48;13.18;;;;;;;;;;5067228;28;20466;-91
2023/10/21 05:23:34;;;;;;;21.77;13.52;;;;;;;;;;5103034;28;20138;-89
2023/10/21 05:26:00;;;;;;;28.73;13.90;;;;;;;;;;5101860;28;20074;-91
2023/10/21 05:28:26;;;;;;;22.92;13.68;;;;;;;;;;5101917;28;20044;-91
2023/10/21 05:30:53;;;;;;;19.60;12.48;;;;;;;;;;5096412;28;20079;-89
2023/10/21 05:33:19;;;;;;;20.63;12.90;;;;;;;;;;5066160;28;20036;-85
2023/10/21 05:35:45;;;;;;;24.52;13.52;;;;;;;;;;5065753;28;20449;-93
2023/10/21 05:38:11;;;;;;;26.98;14.00;;;;;;;;;;5066472;28;20067;-93
2023/10/21 05:40:38;;;;;;;25.40;14.15;;;;;;;;;;5068557;28;20039;-93
2023/10/21 05:43:04;;;;;;;19.70;11.73;;;;;;;;;;5083731;28;20550;-85
2023/10/21 05:45:30;;;;;;;21.85;13.18;;;;;;;;;;5054781;28;20133;-86
2023/10/21 05:47:56;;;;;;;23.45;12.65;;;;;;;;;;5048139;28;20043;-85
2023/10/21 05:50:24;;;;;;;24.35;12.70;;;;;;;;;;5066335;28;20039;-86
2023/10/21 05:52:51;;;;;;;17.83;11.85;;;;;;;;;;5065067;28;20047;-85
2023/10/21 05:55:18;;;;;;;21.35;12.38;;;;;;;;;;5064265;28;20112;-85
2023/10/21 05:57:44;;;;;;;19.63;11.65;;;;;;;;;;5065712;28;20048;-86
2023/10/21 06:00:11;;;;;;;18.98;12.38;;;;;;;;;;5047146;28;20058;-90
2023/10/21 06:02:37;;;;;;;19.88;12.82;;;;;;;;;;5066582;28;20084;-89
2023/10/21 06:05:06;;;;;;;20.95;12.73;;;;;;;;;;5064857;28;20051;-91
2023/10/21 06:07:33;;;;;;;20.27;13.13;;;;;;;;;;5066011;28;20051;-92
2023/10/21 06:09:59;;;;;;;18.63;11.85;;;;;;;;;;5083329;28;20039;-89
2023/10/21 06:12:26;;;;;;;19.13;11.43;;;;;;;;;;5064259;28;20044;-86
2023/10/21 06:14:53;;;;;;;23.42;11.50;;;;;;;;;;5060825;28;20165;-83
2023/10/21 06:17:20;;;;;;;20.35;12.05;;;;;;;;;;5086053;28;20384;-85
2023/10/21 06:19:46;;;;;;;20.45;12.15;;;;;;;;;;5069318;28;20043;-86
2023/10/21 06:22:13;;;;;;;20.92;12.18;;;;;;;;;;5081582;28;20127;-87
2023/10/21 06:24:39;;;;;;;19.27;12.73;;;;;;;;;;5067677;28;20051;-84
2023/10/21 06:27:07;;;;;;;18.90;12.55;;;;;;;;;;5050356;28;20047;-81
2023/10/21 06:29:33;;;;;;;21.40;13.25;;;;;;;;;;5080866;28;20097;-83
2023/10/21 06:32:00;;;;;;;21.42;12.50;;;;;;;;;;5068845;28;20079;-84
2023/10/21 06:34:26;;;;;;;22.33;12.27;;;;;;;;;;5064237;28;20055;-83
2023/10/21 06:36:53;;;;;;;22.95;11.85;;;;;;;;;;5085529;28;20861;-83
2023/10/21 06:39:19;;;;;;;20.95;10.35;;;;;;;;;;5083552;28;20091;-83
2023/10/21 06:41:45;;;;;;;19.25;11.60;;;;;;;;;;5084717;28;20053;-84
2023/10/21 06:44:11;;;;;;;16.50;10.63;;;;;;;;;;5083565;28;20031;-82
2023/10/21 06:46:38;;;;;;;19.23;11.07;;;;;;;;;;5056593;28;20044;-83
2023/10/21 06:49:05;;;;;;;16.40;10.52;;;;;;;;;;5067419;28;20054;-84
2023/10/21 06:51:31;;;;;;;16.50;9.70;;;;;;;;;;5083332;28;20650;-84
2023/10/21 06:53:57;;;;;;;20.48;10.77;;;;;;;;;;5085142;28;20090;-82
2023/10/21 06:56:24;;;;;;;17.90;10.32;;;;;;;;;;5068039;28;20043;-81
2023/10/21 06:58:52;;;;;;;19.15;12.07;;;;;;;;;;5083918;28;20123;-84
2023/10/21 07:01:18;;;;;;;16.35;10.77;;;;;;;;;;5071603;28;20118;-82
2023/10/21 07:03:44;;;;;;;19.90;11.60;;;;;;;;;;5068320;28;20043;-85
2023/10/21 07:06:11;;;;;;;24.55;11.13;;;;;;;;;;5067706;28;20497;-84
2023/10/21 07:08:37;;;;;;;24.15;11.10;;;;;;;;;;5051822;28;20504;-84
2023/10/21 07:11:04;;;;;;;20.10;11.55;;;;;;;;;;5083568;28;20490;-84
2023/10/21 07:13:30;;;;;;;25.55;11.02;;;;;;;;;;5050664;28;20044;-83
2023/10/21 07:15:56;;;;;;;24.67;10.95;;;;;;;;;;5083049;28;20134;-81
2023/10/21 07:18:22;;;;;;;15.60;10.20;;;;;;;;;;5051511;28;20071;-84
2023/10/21 07:20:56;;;;;;;20.83;10.25;;;;;;;;;;5053610;28;20089;-82
2023/10/21 07:23:23;;;;;;;15.85;11.68;;;;;;;;;;5067261;28;20401;-83
2023/10/21 07:25:49;;;;;;;16.63;10.82;;;;;;;;;;5067596;28;20048;-83
2023/10/21 07:28:15;;;;;;;27.52;11.20;;;;;;;;;;5067780;28;20047;-84
2023/10/21 07:30:41;;;;;;;16.55;10.60;;;;;;;;;;5038595;28;20079;-81
2023/10/21 07:33:07;;;;;;;19.00;10.23;;;;;;;;;;5047822;28;20111;-83
2023/10/21 07:35:33;;;;;;;18.95;10.18;;;;;;;;;;5043145;28;20390;-84
2023/10/21 07:37:59;;;;;;;16.38;10.73;;;;;;;;;;5067577;28;20083;-83
2023/10/21 07:40:26;;;;;;;18.70;11.50;;;;;;;;;;5067514;28;20126;-82
2023/10/21 07:42:54;;;;;;;22.25;11.38;;;;;;;;;;5083318;28;20093;-84
2023/10/21 07:45:21;;;;;;;15.88;10.60;;;;;;;;;;5075324;28;20032;-84
2023/10/21 07:47:47;;;;;;;16.60;10.23;;;;;;;;;;5063268;28;20043;-84
2023/10/21 07:50:13;;;;;;;21.95;10.88;;;;;;;;;;5043688;28;20048;-82
2023/10/21 07:52:40;;;;;;;18.63;10.02;;;;;;;;;;5063372;28;20089;-84
2023/10/21 07:55:06;;;;;;;15.82;10.32;;;;;;;;;;5083640;28;20054;-84
2023/10/21 07:57:33;;;;;;;14.70;9.52;;;;;;;;;;5049245;28;20042;-83
2023/10/21 07:59:59;;;;;;;17.60;10.25;;;;;;;;;;5062154;28;20043;-83
2023/10/21 08:02:26;;;;;;;19.33;11.80;;;;;;;;;;5047182;28;20036;-85
2023/10/21 08:04:52;;;;;;;18.73;10.63;;;;;;;;;;5079827;28;20048;-82
2023/10/21 08:07:18;;;;;;;15.75;10.27;;;;;;;;;;5053483;28;20039;-84
2023/10/21 08:09:44;;;;;;;19.08;11.90;;;;;;;;;;5049646;28;20040;-84
2023/10/21 08:12:11;;;;;;;20.42;11.18;;;;;;;;;;5060612;28;20067;-84
2023/10/21 08:14:40;;;;;;;16.48;10.48;;;;;;;;;;5064647;28;20122;-80
2023/10/21 08:17:07;;;;;;;15.57;10.32;;;;;;;;;;5065102;28;20043;-84
2023/10/21 08:19:34;;;;;;;22.67;10.90;;;;;;;;;;5083889;28;20093;-83
2023/10/21 08:22:00;;;;;;;17.45;11.93;;;;;;;;;;5056763;28;20526;-81
2023/10/21 08:24:27;;;;;;;16.75;11.32;;;;;;;;;;5048854;28;20043;-84
2023/10/21 08:26:53;;;;;;;14.50;10.55;;;;;;;;;;5065852;28;20642;-85
2023/10/21 08:29:20;;;;;;;17.65;11.95;;;;;;;;;;5083173;28;20048;-84
2023/10/21 08:31:47;;;;;;;19.92;10.98;;;;;;;;;;5065753;28;20048;-82
2023/10/21 08:34:13;;;;;;;18.45;10.77;;;;;;;;;;5082911;28;20035;-80
2023/10/21 08:36:40;;;;;;;14.98;10.75;;;12.30;99.90;;;;;;5054822;28;20078;-84
2023/10/21 08:39:07;;;;;;;19.80;12.02;;;;;;;;;;5082208;28;20087;-85
2023/10/21 08:41:40;;;;;;;20.30;11.13;;;;;;;;;;5066522;28;20040;-84
2023/10/21 08:44:07;;;;;;;24.67;11.95;;;;;;;;;;5066646;28;20051;-81
2023/10/21 08:46:34;;;;;;;19.42;11.77;;;;;;;;;;5071343;28;20047;-82
2023/10/21 08:49:03;;;;;;;16.25;10.93;;;;;;;;;;5065988;28;20539;-82
2023/10/21 08:51:30;;;;;;;16.30;10.57;;;;;;;;;;5100078;28;20089;-82
2023/10/21 08:53:58;;;;;;;24.10;11.88;;;;;;;;;;5082800;28;20051;-81
2023/10/21 08:56:27;;;;;;;16.35;11.00;;;;;;;;;;5081699;28;20046;-85
2023/10/21 08:58:59;;;;;;;15.20;11.18;;;;;;;;;;5065953;28;20039;-87
2023/10/21 09:01:25;;;;;;;14.57;9.23;;;;;;;;;;5043833;28;20225;-81
2023/10/21 09:03:51;;;;;;;16.27;9.85;;;;;;;;;;5064536;28;20047;-83
2023/10/21 09:06:18;;;;;;;14.65;9.80;;;;;;;;;;5051052;28;20036;-80
2023/10/21 09:08:45;;;;;;;18.42;9.93;;;;;;;;;;5040004;28;20062;-83
2023/10/21 09:11:13;;;;;;;16.98;9.18;;;;;;;;;;5081257;28;20136;-82
2023/10/21 09:13:40;;;;;;;18.98;9.68;;;;;;;;;;5065913;28;20078;-79
2023/10/21 09:16:21;;;;;;;15.05;8.77;;;13.10;99.90;;;;;;5062172;28;20059;-84
2023/10/21 09:19:00;;;;;;;10.07;7.85;;;;;;;;;;5065292;28;20190;-81
2023/10/21 09:21:33;;;;;;;15.80;9.43;;;13.00;99.90;;;;;;5073648;28;20040;-84
2023/10/21 09:24:03;;;;;;;14.10;8.02;;;;;;;;;;5048819;28;21043;-82
2023/10/21 09:26:33;;;;;;;15.02;8.73;;;;;;;;;;5065347;28;20062;-79
2023/10/21 09:29:12;;;;;;;16.33;7.70;;;;;;;;;;5065738;28;20724;-85
2023/10/21 09:31:41;;;;;;;12.38;7.15;;;;;;;;;;5058957;28;20039;-83
2023/10/21 09:34:07;;;;;;;10.68;7.10;;;;;;;;;;5065899;28;20505;-84
2023/10/21 09:36:42;;;;;;;11.32;7.05;;;;;;;;;;5070405;28;20052;-79
2023/10/21 09:39:09;;;;;;;10.15;7.15;;;13.60;99.90;;;;;;5047817;28;20060;-85
2023/10/21 09:41:37;;;;;;;12.18;6.90;;;13.70;99.90;;;;;;5030774;28;20047;-83
2023/10/21 09:44:03;;;;;;;8.35;6.45;;;;;;;;;;5082342;28;20047;-85
2023/10/21 09:46:31;;;;;;;12.15;6.75;;;;;;;;;;5070580;28;20036;-82
2023/10/21 09:49:03;;;;;;;12.77;6.30;;;;;;;;;;5065132;28;20109;-85
2023/10/21 09:51:33;;;;;;;8.13;5.97;;;;;;;;;;5081189;28;20063;-83
2023/10/21 09:54:03;;;;;;;13.50;5.95;;;13.60;99.90;;;;;;5085233;28;20040;-86
2023/10/21 09:56:30;;;;;;;12.77;5.72;;;;;;;;;;5084983;28;20043;-83
2023/10/21 09:58:59;;;;;;;10.65;5.32;;;13.70;99.90;;;;;;5084421;28;20067;-82
2023/10/21 10:01:25;;;;;;;8.73;5.60;;;;;;;;;;5042365;28;20043;-85
2023/10/21 10:03:52;;;;;;;9.90;5.50;;;13.90;99.90;;;;;;5068678;28;20047;-81
2023/10/21 10:06:20;;;;;;;9.52;4.93;;;;;;;;;;5083644;28;20050;-86
2023/10/21 10:08:47;;;;;;;8.75;4.80;;;;;;;;;;5068789;28;20040;-83
2023/10/21 10:11:18;;;;;;;8.73;5.53;;;;;;;;;;5083335;28;20051;-83
2023/10/21 10:13:48;;;;;;;8.23;4.57;;;;;;;;;;5069708;28;20043;-80
2023/10/21 10:16:23;;;;;;;9.07;5.35;;;;;;;;;;5064666;28;20185;-82
2023/10/21 10:18:50;;;;;;;6.68;4.82;;;13.90;99.90;;;;;;5085600;28;20496;-80
2023/10/21 10:21:17;;;;;;;9.93;4.65;;;;;;;;;;5049652;28;20816;-82
2023/10/21 10:23:58;;;;;;;10.73;4.43;;;13.90;99.90;;;;;;5084287;28;20050;-82
2023/10/21 10:26:43;;;;;;;6.90;5.03;;;;;;;;;;5085867;28;20071;-83
2023/10/21 10:29:18;;;;;;;9.55;4.85;;;;;;;;;;5085112;28;20751;-83
2023/10/21 10:31:45;;;;;;;6.63;3.90;;;;;;;;;;5068611;28;20040;-80
2023/10/21 10:34:11;;;;;;;5.30;3.70;;;;;;;;;;5084310;28;21113;-83
2023/10/21 10:36:37;;;;;;;8.57;3.42;;;;;;;;;;5085890;28;20043;-88
2023/10/21 10:39:04;;;;;;;7.40;3.90;;;;;;;;;;5085319;28;20055;-82
2023/10/21 10:41:32;;;;;;;3.92;3.33;;;;;;;;;;5068996;28;20044;-88
2023/10/21 10:44:03;;;;;;;5.03;3.10;;;;;;;;;;5085685;28;20110;-87
2023/10/21 10:46:31;;;;;;;2.75;2.47;;;13.90;99.90;;;;;;5058809;28;20036;-82
2023/10/21 10:49:00;;;;;;;3.80;2.65;;;13.90;99.90;;;;;;5068237;28;20069;-86
2023/10/21 10:51:30;;;;;;;4.32;2.50;;;;;;;;;;5069877;28;20453;-84
2023/10/21 10:54:00;;;;;;;9.15;3.10;;;;;;;;;;5085016;28;20530;-82
2023/10/21 10:56:48;;;;;;;4.75;3.35;;;14.10;99.90;;;;;;5068026;28;20043;-86
2023/10/21 10:59:17;;;;;;;4.70;3.33;;;;;;;;;;5065027;28;20048;-84
2023/10/21 11:01:45;;;;;;;4.68;3.15;;;;;;;;;;5082583;28;20075;-83
2023/10/21 11:04:20;;;;;;;4.05;2.78;;;;;;;;;;5085750;28;20105;-91
2023/10/21 11:06:58;;;;;;;4.47;2.83;;;;;;;;;;5088050;28;20043;-91
2023/10/21 11:09:30;;;;;;;5.13;2.30;;;;;;;;;;5083448;28;20128;-79
2023/10/21 11:11:57;;;;;;;3.17;2.45;;;;;;;;;;5084827;28;20048;-81
2023/10/21 11:14:24;;;;;;;3.63;1.95;;;;;;;;;;5066739;28;20063;-88
2023/10/21 11:16:51;;;;;;;2.00;1.80;;;;;;;;;;5064703;28;20115;-88
2023/10/21 11:19:18;;;;;;;3.63;2.10;;;;;;;;;;5065478;28;20044;-85
2023/10/21 11:21:51;;;;;;;2.95;2.55;;;;;;;;;;5052903;28;20039;-82
2023/10/21 11:24:39;;;;;;;2.70;2.35;;;13.80;99.90;;;;;;5080508;28;20078;-88
2023/10/21 11:27:06;;;;;;;1.77;1.67;;;14.00;99.90;;;;;;5079689;28;20056;-83
2023/10/21 11:29:33;;;;;;;3.47;2.15;;;;;;;;;;5076005;28;20043;-87
2023/10/21 11:31:59;;;;;;;2.97;1.92;;;;;;;;;;5078119;28;20047;-90
2023/10/21 11:34:37;;;;;;;2.17;1.88;;;;;;;;;;5077244;28;20126;-81
2023/10/21 11:37:04;;;;;;;5.90;1.90;;;;;;;;;;5057519;28;20046;-84
2023/10/21 11:39:32;;;;;;;3.30;2.13;;;;;;;;;;5050391;28;20104;-89
2023/10/21 11:41:59;;;;;;;2.42;1.80;;;;;;;;;;5082213;28;20458;-81
2023/10/21 11:44:26;;;;;;;1.90;1.48;;;;;;;;;;5073522;28;20047;-90
2023/10/21 11:46:57;;;;;;;2.38;1.05;;;;;;;;;;5081813;28;20100;-87
2023/10/21 11:49:23;;;;;;;2.05;1.58;;;;;;;;;;5061780;28;20048;-84
2023/10/21 11:51:52;;;;;;;2.45;1.23;;;;;;;;;;5080028;28;20046;-80
2023/10/21 11:54:39;;;;;;;1.20;1.10;;;;;;;;;;5074948;28;20105;-88
2023/10/21 12:16:31;;;;;;;1.55;1.38;;;;;;;;;;5080542;28;20044;-89
2023/10/21 12:34:35;;;;;;;1.42;1.02;;;;;;;;;;5083234;28;20734;-81
2023/10/21 12:39:37;;;;;;;2.97;1.30;;;;;;;;;;5068458;28;20057;-88
2023/10/21 12:44:54;;;;;;;1.85;1.23;;;;;;;;;;5081123;28;20040;-86
2023/10/21 12:47:20;;;;;;;2.60;1.08;;;;;;;;;;5068477;28;20079;-88
2023/10/21 12:49:49;;;;;;;1.80;1.33;;;;;;;;;;5067838;28;20048;-89
2023/10/21 12:52:16;;;;;;;2.45;1.20;;;;;;;;;;5081888;28;20115;-87
2023/10/21 12:54:43;;;;;;;4.07;2.08;;;;;;;;;;5050346;28;20082;-88
2023/10/21 12:57:10;;;;;;;1.67;1.35;;;;;;;;;;5066916;28;20101;-88
2023/10/21 12:59:36;;;;;;;2.80;1.50;;;;;;;;;;5084106;28;20697;-88
2023/10/21 13:02:09;;;;;;;1.77;1.23;;;14.20;82.50;;;;;;5081990;28;20044;-85
2023/10/21 13:04:38;;;;;;;1.63;0.93;;;;;;;;;;5066083;28;20043;-89
2023/10/21 13:07:05;;;;;;;2.60;1.00;;;;;;;;;;5082455;28;20491;-89
2023/10/21 13:09:31;;;;;;;2.63;1.08;;;;;;;;;;5065811;28;20442;-84
2023/10/21 13:11:58;;;;;;;1.98;1.25;;;;;;;;;;5083096;28;20121;-85
2023/10/21 13:14:26;;;;;;;1.63;1.05;;;;;;;;;;5066775;28;20502;-82
2023/10/21 13:16:53;;;;;;;1.80;1.15;;;;;;;;;;5064148;28;20482;-80
2023/10/21 13:19:19;;;;;;;1.77;1.10;;;;;;;;;;5064863;28;20032;-81
2023/10/21 13:21:45;;;;;;;2.90;1.20;;;;;;;;;;5080745;28;20138;-80
2023/10/21 13:24:11;;;;;;;1.10;0.93;;;;;;;;;;5066226;28;20047;-84
2023/10/21 13:26:37;;;;;;;2.38;1.00;;;;;;;;;;5086703;28;20047;-83
2023/10/21 13:29:04;;;;;;;2.97;1.13;;;;;;;;;;5053257;28;20039;-80
2023/10/21 13:31:31;;;;;;;3.63;1.33;;;14.50;92.30;;;;;;5076556;28;20600;-82
2023/10/21 13:33:57;;;;;;;1.65;0.90;;;;;;;;;;5052800;28;20077;-81
2023/10/21 13:36:23;;;;;;;4.05;1.20;;;;;;;;;;5082681;28;20469;-83
2023/10/21 13:38:49;;;;;;;0.98;0.88;;;14.50;92.20;;;;;;5069202;28;20803;-85
2023/10/21 13:41:15;;;;;;;4.50;1.00;;;;;;;;;;5086836;28;20104;-82
2023/10/21 13:43:42;;;;;;;3.05;1.50;;;;;;;;;;5069351;28;20046;-83
2023/10/21 13:46:09;;;;;;;1.60;1.00;;;;;;;;;;5085479;28;20110;-85
2023/10/21 13:48:35;;;;;;;4.28;0.98;;;;;;;;;;5069601;28;20039;-84
2023/10/21 13:51:06;;;;;;;4.05;1.40;;;;;;;;;;5080192;28;20423;-80
2023/10/21 13:53:33;;;;;;;2.05;0.95;;;;;;;;;;5086406;28;20058;-84
2023/10/21 13:55:59;;;;;;;2.00;1.77;;;;;;;;;;5068656;28;20448;-80
2023/10/21 13:58:25;;;;;;;3.63;1.70;;;;;;;;;;5069387;28;20488;-83
2023/10/21 14:00:51;;;;;;;7.05;1.60;;;;;;;;;;5086406;28;20531;-86
2023/10/21 14:03:22;;;;;;;2.92;0.93;;;14.50;70.80;;;;;;5085977;28;20040;-80
2023/10/21 14:05:51;;;;;;;11.07;1.58;;;;;;;;;;5082547;28;20056;-86
2023/10/21 14:08:18;;;;;;;3.00;0.90;;;;;;;;;;5068475;28;20051;-84
2023/10/21 14:10:48;;;;;;;2.80;1.10;;;14.90;93.10;;;;;;5067235;28;20081;-82
2023/10/21 14:13:19;;;;;;;6.97;1.77;;;14.90;74.80;;;;;;5069415;28;20079;-84
2023/10/21 14:15:50;;;;;;;2.08;1.15;;;;;;;;;;5085203;28;20047;-83
2023/10/21 14:18:16;;;;;;;2.60;1.13;;;15.00;67.30;;;;;;5085188;28;20040;-82
2023/10/21 14:20:43;;;;;;;4.35;1.20;;;;;;;;;;5082793;28;20515;-83
2023/10/21 14:23:16;;;;;;;2.03;1.10;;;14.80;67.30;;;;;;5062422;28;20027;-80
2023/10/21 14:25:49;;;;;;;1.00;1.00;;;15.30;55.90;;;;;;5067047;28;20079;-85
2023/10/21 14:28:16;;;;;;;2.40;0.82;;;15.20;54.80;;;;;;5082423;28;20048;-82
2023/10/21 14:30:45;;;;;;;2.63;1.20;;;;;;;;;;5084190;28;20052;-81
2023/10/21 14:33:12;;;;;;;1.25;1.13;;;;;;;;;;5085879;28;20495;-84
2023/10/21 14:35:41;;;;;;;1.83;1.17;;;;;;;;;;5068450;28;20039;-80
2023/10/21 14:38:08;;;;;;;4.85;1.23;;;;;;;;;;5085472;28;20052;-84
2023/10/21 14:40:36;;;;;;;1.27;0.90;;;15.00;47.30;;;;;;5086339;28;20044;-80
2023/10/21 14:43:03;;;;;;;3.50;1.45;;;;;;;;;;5072932;28;20050;-83
2023/10/21 14:45:29;;;;;;;2.10;1.08;;;15.30;57.50;;;;;;5069042;28;20529;-81
2023/10/21 14:47:55;;;;;;;3.10;1.10;;;15.30;60.50;;;;;;5052124;28;20047;-83
2023/10/21 14:50:23;;;;;;;2.70;1.10;;;;;;;;;;5068695;28;20055;-84
2023/10/21 14:52:49;;;;;;;2.83;1.00;;;;;;;;;;5072244;28;20055;-85
2023/10/21 14:55:15;;;;;;;4.53;1.20;;;15.10;44.90;;;;;;5052081;28;20154;-81